Time;durP1;ratioP1;P1;durP2;ratioP2;P2;SDS_P1;SDS_P2;PMS_P1;PMS_P2;Temp;Humidity;BMP_temperature;BMP_pressure;BME280_temperature;BME280_humidity;BME280_pressure;Samples;Min_cycle;Max_cycle;Signal;HPM_P1;HPM_P2
2023/01/30 00:01:18;;;;;;;13.07;8.83;;;0.00;99.90;;;-141.84;65.82;18913.59;5051881;28;20229;-62
2023/01/30 00:03:48;;;;;;;16.00;9.70;;;-0.10;99.90;;;-141.84;66.38;18929.88;5051573;28;20233;-63
2023/01/30 00:06:16;;;;;;;11.53;8.63;;;-0.10;99.90;;;-141.84;66.08;18907.50;5052225;28;20204;-62
2023/01/30 00:08:45;;;;;;;13.60;9.40;;;-0.10;99.90;;;-141.84;66.23;18899.38;5052464;28;20194;-61
2023/01/30 00:11:16;;;;;;;12.70;8.77;;;-0.20;99.90;;;-141.84;65.79;18933.94;5051805;28;20240;-62
2023/01/30 00:13:45;;;;;;;12.80;9.13;;;-0.10;99.90;;;-141.84;65.81;18903.44;5051319;28;20218;-62
2023/01/30 00:16:13;;;;;;;14.70;9.63;;;-0.10;99.90;;;-141.84;65.89;18891.25;5051452;28;20249;-62
2023/01/30 00:18:43;;;;;;;12.57;8.47;;;-0.10;99.90;;;-141.84;65.85;18923.78;5051642;28;20225;-63
2023/01/30 00:21:14;;;;;;;11.30;8.17;;;-0.10;99.90;;;-141.84;65.74;18927.84;5051863;28;20209;-61
2023/01/30 00:23:44;;;;;;;14.13;8.87;;;0.00;99.90;;;-141.84;65.34;18935.97;5052203;28;20376;-62
2023/01/30 00:26:12;;;;;;;11.90;8.20;;;0.00;99.90;;;-141.84;65.55;18911.56;5051562;28;20642;-62
2023/01/30 00:28:41;;;;;;;13.13;8.90;;;0.00;99.90;;;-141.84;65.30;18911.56;5051470;28;20260;-62
2023/01/30 00:31:09;;;;;;;12.97;8.73;;;0.00;99.90;;;-141.84;65.57;18946.13;5031150;28;20237;-63
2023/01/30 00:33:39;;;;;;;12.13;8.67;;;0.00;99.90;;;-141.84;65.46;18917.66;5031396;28;20225;-62
2023/01/30 00:36:09;;;;;;;12.37;8.30;;;0.10;99.90;;;-141.84;65.36;18895.31;5031506;28;20206;-62
2023/01/30 00:38:39;;;;;;;11.30;8.43;;;0.10;99.90;;;-141.84;65.83;18905.47;5031552;28;20184;-62
2023/01/30 00:41:09;;;;;;;14.00;8.57;;;0.00;99.90;;;-141.84;66.19;18925.81;5031332;28;20226;-61
2023/01/30 00:49:20;;;;;;;13.53;9.30;;;-0.10;99.90;;;-141.84;67.00;18899.38;5031240;28;20233;-62
2023/01/30 00:51:48;;;;;;;12.43;9.07;;;-0.10;99.90;;;-141.84;67.25;18915.63;5046420;28;20221;-62
2023/01/30 00:54:17;;;;;;;12.20;8.80;;;-0.10;99.90;;;-141.84;67.53;18940.03;5050800;28;20201;-64
2023/01/30 00:56:45;;;;;;;12.23;8.67;;;-0.20;99.90;;;-141.84;67.91;18921.75;5051820;28;20209;-62
2023/01/30 00:59:14;;;;;;;12.47;9.10;;;-0.20;99.90;;;-141.84;67.89;18897.34;5050835;28;20259;-62
2023/01/30 01:01:42;;;;;;;12.60;8.87;;;-0.20;99.90;;;-141.84;68.41;18921.75;5032084;28;20239;-62
2023/01/30 01:04:11;;;;;;;13.73;9.50;;;-0.20;99.90;;;-141.84;68.83;18881.09;5050798;28;20292;-62
2023/01/30 01:06:40;;;;;;;12.07;8.87;;;-0.20;99.90;;;-141.84;68.85;18897.34;5050700;28;20232;-62
2023/01/30 01:09:09;;;;;;;13.23;9.37;;;-0.20;99.90;;;-141.84;69.02;18877.03;5050224;28;20208;-63
2023/01/30 01:11:38;;;;;;;12.77;9.37;;;-0.20;99.90;;;-141.84;69.11;18895.31;5051075;28;20697;-61
2023/01/30 01:14:07;;;;;;;12.70;9.13;;;-0.30;99.90;;;-141.84;69.29;18891.25;5050358;28;20225;-62
2023/01/30 01:16:36;;;;;;;16.47;10.00;;;-0.20;99.90;;;-141.84;69.18;18897.34;5050305;28;20234;-64
2023/01/30 01:19:05;;;;;;;12.93;9.23;;;-0.20;99.90;;;-141.84;69.52;18895.31;5050585;28;20233;-63
2023/01/30 01:21:33;;;;;;;14.27;9.50;;;-0.20;99.90;;;-141.84;69.13;18870.94;5050548;28;20224;-62
2023/01/30 01:24:01;;;;;;;13.47;9.47;;;-0.20;99.90;;;-141.84;69.15;18909.53;5050353;28;20283;-64
2023/01/30 01:26:29;;;;;;;11.87;9.10;;;-0.10;99.90;;;-141.84;69.01;18899.38;5050800;28;20202;-63
2023/01/30 01:28:59;;;;;;;15.37;9.83;;;0.00;99.90;;;-141.84;68.96;18919.69;5047800;28;20294;-64
2023/01/30 01:31:28;;;;;;;12.30;8.73;;;0.10;99.90;;;-141.84;68.64;18899.38;5030267;28;20226;-63
2023/01/30 01:33:57;;;;;;;12.87;9.33;;;0.10;99.90;;;-141.84;68.57;18919.69;5030268;28;20236;-62
2023/01/30 01:36:25;;;;;;;12.73;9.20;;;0.20;99.90;;;-141.84;69.22;18935.97;5030287;28;20235;-62
2023/01/30 01:39:13;;;;;;;13.50;9.10;;;0.20;99.90;;;-141.84;69.28;18885.16;5034265;28;20208;-62
2023/01/30 01:41:40;;;;;;;12.90;9.73;;;0.20;99.90;;;-141.84;69.80;18925.81;5050940;28;20205;-62
2023/01/30 01:44:12;;;;;;;13.23;9.60;;;0.20;99.90;;;-141.84;69.87;18950.19;5036016;28;20224;-62
2023/01/30 01:46:47;;;;;;;14.20;9.63;;;0.20;99.90;;;-141.84;69.46;18917.66;5030072;28;20275;-63
2023/01/30 01:49:22;;;;;;;12.60;8.87;;;0.30;99.90;;;-141.84;68.83;18893.28;5030240;28;20223;-63
2023/01/30 01:51:58;;;;;;;13.23;9.40;;;0.40;99.90;;;-141.84;68.94;18875.00;5045673;28;20223;-62
2023/01/30 01:54:36;;;;;;;13.40;8.97;;;0.50;99.90;;;-141.84;69.15;18923.78;5049329;28;20223;-63
2023/01/30 01:57:12;;;;;;;12.47;8.97;;;0.50;99.90;;;-141.84;69.56;18919.69;5031755;28;20593;-61
2023/01/30 01:59:48;;;;;;;11.97;8.67;;;0.50;99.90;;;-141.84;69.13;18925.81;5038470;28;20216;-62
2023/01/30 02:02:18;;;;;;;11.20;8.77;;;0.60;99.90;;;-141.84;69.08;18940.03;5049628;28;20238;-62
2023/01/30 02:05:05;;;;;;;12.77;9.43;;;0.60;99.90;;;-141.84;69.42;18909.53;5049564;28;20251;-61
2023/01/30 02:07:39;;;;;;;12.00;8.47;;;0.60;99.90;;;-141.84;69.13;18929.88;5049701;28;20316;-61
2023/01/30 02:10:13;;;;;;;11.20;8.27;;;0.70;99.90;;;-141.84;69.09;18944.09;5049731;28;20247;-63
2023/01/30 02:12:43;;;;;;;12.97;8.47;;;0.80;99.90;;;-141.84;69.56;18933.94;5050146;28;20228;-62
2023/01/30 02:15:13;;;;;;;11.20;8.80;;;0.80;99.90;;;-141.84;68.73;18933.94;5049385;28;20239;-62
2023/01/30 02:17:41;;;;;;;11.37;8.70;;;0.90;99.90;;;-141.84;68.92;18923.78;5050104;28;20460;-62
2023/01/30 02:20:26;;;;;;;11.67;8.37;;;0.90;99.90;;;-141.84;68.73;18940.03;5040965;28;20776;-62
2023/01/30 02:23:49;;;;;;;12.03;9.07;;;0.90;99.90;;;-141.84;68.85;18956.28;5028960;28;20241;-62
2023/01/30 02:26:53;;;;;;;12.33;8.97;;;0.90;99.90;;;-141.84;69.17;18946.13;5013907;28;20769;-62
2023/01/30 02:30:06;;;;;;;13.33;9.23;;;0.80;99.90;;;-141.84;69.52;18944.09;5025512;28;20229;-61
2023/01/30 02:32:49;;;;;;;12.90;9.03;;;0.80;99.90;;;-141.84;69.29;18925.81;5028944;28;20724;-62
2023/01/30 02:35:33;;;;;;;12.80;9.30;;;0.80;99.90;;;-141.84;69.90;18933.94;5031042;28;20697;-62
2023/01/30 02:38:19;;;;;;;12.70;9.17;;;0.80;99.90;;;-141.84;69.46;18942.06;5048542;28;20227;-62
2023/01/30 02:41:02;;;;;;;12.13;9.20;;;0.80;99.90;;;-141.84;69.69;18940.03;5031123;28;20756;-62
2023/01/30 02:43:44;;;;;;;11.40;8.10;;;0.90;99.90;;;-141.84;70.14;18940.03;5037103;28;20225;-62
2023/01/30 02:46:20;;;;;;;12.20;9.03;;;0.80;99.90;;;-141.84;70.41;18923.78;5048654;28;20234;-62
2023/01/30 02:48:57;;;;;;;11.00;8.27;;;0.90;99.90;;;-141.84;70.65;18927.84;5048849;28;20228;-63
2023/01/30 02:51:31;;;;;;;10.80;8.20;;;0.90;99.90;;;-141.84;70.71;18940.03;5048636;28;20250;-63
2023/01/30 02:54:00;;;;;;;10.97;8.80;;;0.90;99.90;;;-141.84;70.76;18956.28;5049053;28;20189;-63
2023/01/30 02:56:28;;;;;;;11.90;8.37;;;1.00;99.90;;;-141.84;70.76;18970.50;5049182;28;20215;-62
2023/01/30 02:59:01;;;;;;;10.10;7.53;;;1.00;99.90;;;-141.84;70.75;18960.34;5048567;28;20811;-63
2023/01/30 03:02:16;;;;;;;10.47;7.37;;;1.10;99.90;;;-141.84;70.38;18960.34;5048049;28;20233;-62
2023/01/30 03:05:21;;;;;;;9.53;7.03;;;1.10;99.90;;;-141.84;70.49;18950.19;5048385;28;20314;-63
2023/01/30 03:08:02;;;;;;;10.07;7.43;;;1.20;99.90;;;-141.84;70.17;18919.69;5048730;28;20732;-62
2023/01/30 03:10:41;;;;;;;9.47;6.93;;;1.20;99.90;;;-141.84;70.21;18960.34;5048395;28;20225;-62
2023/01/30 03:13:19;;;;;;;10.73;7.80;;;1.30;99.90;;;-141.84;70.44;18944.09;5048768;28;20231;-63
2023/01/30 03:15:55;;;;;;;10.43;7.93;;;1.30;99.90;;;-141.84;70.49;18970.50;5047992;28;20225;-62
2023/01/30 03:18:23;;;;;;;11.10;8.17;;;1.30;99.90;;;-141.84;70.44;18984.72;5048398;28;20795;-62
2023/01/30 03:20:53;;;;;;;11.63;7.83;;;1.20;99.90;;;-141.84;70.36;18970.50;5048587;28;20676;-62
2023/01/30 03:23:21;;;;;;;10.73;7.87;;;1.30;99.90;;;-141.84;70.66;18974.56;5048236;28;20225;-62
2023/01/30 03:25:50;;;;;;;11.13;8.43;;;1.30;99.90;;;-141.84;70.53;18984.72;5048189;28;20239;-64
2023/01/30 03:28:21;;;;;;;10.37;7.37;;;1.40;99.90;;;-141.84;70.99;18960.34;5048152;28;20225;-63
2023/01/30 03:30:49;;;;;;;9.40;7.10;;;1.40;99.90;;;-141.84;71.28;18990.81;5032470;28;20228;-62
2023/01/30 03:33:17;;;;;;;10.47;7.10;;;1.40;99.90;;;-141.84;70.90;18946.13;5051410;28;20248;-63
2023/01/30 03:35:45;;;;;;;8.60;6.97;;;1.40;99.90;;;-141.84;71.21;18960.34;5052206;28;20541;-62
2023/01/30 03:38:15;;;;;;;9.77;7.50;;;1.50;99.90;;;-141.84;70.73;18944.09;5051683;28;20229;-63
2023/01/30 03:40:43;;;;;;;8.63;7.10;;;1.60;99.90;;;-141.84;70.57;18976.59;5035458;28;20234;-63
2023/01/30 03:43:12;;;;;;;9.43;6.93;;;1.60;99.90;;;-141.84;70.89;18988.78;5031887;28;20225;-62
2023/01/30 03:45:40;;;;;;;9.37;7.43;;;1.70;99.90;;;-141.84;70.99;19013.16;5031606;28;20296;-62
2023/01/30 03:48:08;;;;;;;10.80;7.47;;;1.70;99.90;;;-141.84;70.48;19005.03;5031920;28;20206;-63
2023/01/30 03:50:36;;;;;;;10.87;7.50;;;1.80;99.90;;;-141.84;70.87;18976.59;5037450;28;20194;-62
2023/01/30 03:53:04;;;;;;;11.10;7.03;;;1.80;99.90;;;-141.84;70.99;18992.84;5051568;28;20594;-62
2023/01/30 03:55:34;;;;;;;11.53;7.73;;;1.80;99.90;;;-141.84;70.69;19005.03;5051715;28;20592;-63
2023/01/30 03:58:02;;;;;;;11.23;7.27;;;1.90;99.90;;;-141.84;70.40;18996.91;5051483;28;20220;-63
2023/01/30 04:00:30;;;;;;;9.67;7.47;;;1.90;99.90;;;-141.84;70.50;19003.00;5043791;28;20221;-62
2023/01/30 04:02:58;;;;;;;12.17;7.80;;;2.00;99.90;;;-141.84;70.69;18962.38;5033974;28;20713;-64
2023/01/30 04:05:27;;;;;;;10.50;7.43;;;2.00;99.90;;;-141.84;70.85;18974.56;5032016;28;20614;-62
2023/01/30 04:07:57;;;;;;;12.10;7.87;;;2.00;99.90;;;-141.84;71.25;18974.56;5031472;28;20621;-62
2023/01/30 04:10:26;;;;;;;9.93;7.37;;;2.00;99.90;;;-141.84;71.11;18996.91;5031392;28;20238;-63
2023/01/30 04:12:56;;;;;;;11.53;7.60;;;2.00;99.90;;;-141.84;71.05;18972.53;4996168;28;20230;-63
2023/01/30 04:15:24;;;;;;;10.83;8.03;;;2.00;99.90;;;-141.84;71.36;18982.69;5031112;28;20329;-62
2023/01/30 04:17:52;;;;;;;11.23;7.90;;;2.00;99.90;;;-141.84;71.13;19005.03;5031987;28;20202;-63
2023/01/30 04:20:20;;;;;;;11.23;7.83;;;2.10;99.90;;;-141.84;70.92;18980.66;5031287;28;20234;-63
2023/01/30 04:22:49;;;;;;;10.80;7.83;;;2.10;99.90;;;-141.84;71.03;19000.97;5031441;28;20226;-62
2023/01/30 04:25:17;;;;;;;11.87;8.17;;;2.20;99.90;;;-141.84;71.20;18994.88;5031428;28;20553;-63
2023/01/30 04:27:45;;;;;;;11.60;7.50;;;2.20;99.90;;;-141.84;71.08;18976.59;5033472;28;20226;-62
2023/01/30 04:30:15;;;;;;;11.30;7.83;;;2.20;99.90;;;-141.84;70.80;19011.13;5050923;28;20576;-62
2023/01/30 04:32:44;;;;;;;10.77;8.00;;;2.20;99.90;;;-141.84;71.15;18988.78;5051421;28;20213;-62
2023/01/30 04:35:12;;;;;;;12.13;8.20;;;2.20;99.90;;;-141.84;71.20;19007.06;5050786;28;20236;-62
2023/01/30 04:37:40;;;;;;;11.73;7.67;;;2.30;99.90;;;-141.84;71.92;18976.59;5051039;28;20240;-62
2023/01/30 04:40:10;;;;;;;11.50;8.10;;;2.30;99.90;;;-141.84;72.46;19013.16;5050547;28;20716;-64
2023/01/30 04:42:38;;;;;;;11.03;7.97;;;2.30;99.90;;;-141.84;72.64;18994.88;5050560;28;20224;-63
2023/01/30 04:45:08;;;;;;;12.43;8.27;;;2.30;99.90;;;-141.84;72.39;19005.03;5051433;28;20788;-63
2023/01/30 04:47:38;;;;;;;12.77;8.73;;;2.30;99.90;;;-141.84;72.78;18988.78;5051685;28;20217;-63
2023/01/30 04:50:07;;;;;;;11.80;8.40;;;2.30;99.90;;;-141.84;72.63;18986.75;5051232;28;20229;-62
2023/01/30 04:52:36;;;;;;;11.03;8.00;;;2.40;99.90;;;-141.84;72.67;19027.41;5051197;28;20228;-62
2023/01/30 04:55:07;;;;;;;12.10;8.63;;;2.40;99.90;;;-141.84;72.38;19011.13;5051052;28;20232;-63
2023/01/30 04:57:35;;;;;;;11.27;8.20;;;2.50;99.90;;;-141.84;72.19;19007.06;5051326;28;20233;-62
2023/01/30 05:00:05;;;;;;;12.93;8.83;;;2.50;99.90;;;-141.84;71.80;19005.03;5040331;28;20213;-63
2023/01/30 05:02:34;;;;;;;12.07;8.37;;;2.60;99.90;;;-141.84;72.26;18996.91;5048265;28;20284;-63
2023/01/30 05:05:03;;;;;;;11.60;8.50;;;2.60;99.90;;;-141.84;72.15;19007.06;5050580;28;20230;-62
2023/01/30 05:07:31;;;;;;;12.53;8.07;;;2.60;99.90;;;-141.84;72.15;18988.78;5050506;28;20237;-64
2023/01/30 05:10:01;;;;;;;12.33;8.43;;;2.70;99.90;;;-141.84;72.27;19019.28;5050797;28;20255;-63
2023/01/30 05:12:30;;;;;;;11.77;8.07;;;2.70;99.90;;;-141.84;72.45;19011.13;5047030;28;20605;-63
2023/01/30 05:14:58;;;;;;;12.83;8.40;;;2.70;99.90;;;-141.84;72.20;19049.75;5049938;28;20738;-64
2023/01/30 05:17:26;;;;;;;10.60;7.90;;;2.80;99.90;;;-141.84;72.16;19025.38;5043801;28;20199;-63
2023/01/30 05:19:54;;;;;;;11.33;8.10;;;2.80;99.90;;;-141.84;72.41;19005.03;5030825;28;20238;-63
2023/01/30 05:22:24;;;;;;;11.93;8.20;;;2.80;99.90;;;-141.84;72.40;19011.13;5041428;28;20334;-63
2023/01/30 05:24:52;;;;;;;11.20;7.97;;;2.80;99.90;;;-141.84;72.64;19021.31;5049573;28;20244;-63
2023/01/30 05:27:20;;;;;;;9.80;7.70;;;2.80;99.90;;;-141.84;72.69;19013.16;5050364;28;20298;-62
2023/01/30 05:29:49;;;;;;;11.40;7.27;;;2.80;99.90;;;-141.84;72.57;19025.38;5050909;28;20209;-63
2023/01/30 05:32:20;;;;;;;10.87;8.27;;;2.90;99.90;;;-141.84;72.50;19033.50;5041505;28;20249;-64
2023/01/30 05:34:49;;;;;;;11.60;8.00;;;2.90;99.90;;;-141.84;73.02;19013.16;5030328;28;20231;-62
2023/01/30 05:37:17;;;;;;;10.47;7.80;;;2.90;99.90;;;-141.84;72.70;19033.50;5030404;28;20235;-62
2023/01/30 05:39:46;;;;;;;9.93;7.47;;;2.90;99.90;;;-141.84;72.55;19017.25;5032718;28;20222;-63
2023/01/30 05:42:16;;;;;;;12.33;8.70;;;2.90;99.90;;;-141.84;72.67;18998.94;5034791;28;20539;-63
2023/01/30 05:44:44;;;;;;;10.77;8.20;;;2.90;99.90;;;-141.84;72.74;19021.31;5045105;28;20200;-63
2023/01/30 05:47:13;;;;;;;8.13;7.20;;;2.90;99.90;;;-141.84;72.57;19041.63;5049786;28;20234;-63
2023/01/30 05:49:41;;;;;;;10.40;7.70;;;3.00;99.90;;;-141.84;72.50;19041.63;5049741;28;20362;-62
2023/01/30 05:52:10;;;;;;;11.33;8.03;;;3.00;99.90;;;-141.84;72.62;19031.47;5049822;28;20225;-62
2023/01/30 05:54:38;;;;;;;11.23;7.77;;;3.00;99.90;;;-141.84;72.80;19009.09;5048242;28;20243;-63
2023/01/30 05:57:07;;;;;;;11.13;8.13;;;3.00;99.90;;;-141.84;73.07;19009.09;5049676;28;20730;-63
2023/01/30 05:59:35;;;;;;;11.03;7.93;;;3.00;99.90;;;-141.84;73.06;19045.69;5043333;28;20211;-63
2023/01/30 06:02:03;;;;;;;11.50;7.87;;;3.00;99.90;;;-141.84;73.04;19047.72;5030160;28;20233;-64
2023/01/30 06:04:31;;;;;;;10.50;8.23;;;3.10;99.90;;;-141.84;73.77;19009.09;5030020;28;20226;-62
2023/01/30 06:06:59;;;;;;;12.43;8.20;;;3.00;99.90;;;-141.84;73.79;18990.81;5029675;28;20594;-63
2023/01/30 06:09:27;;;;;;;10.47;8.03;;;3.00;99.90;;;-141.84;74.17;19013.16;5029946;28;20230;-63
2023/01/30 06:11:55;;;;;;;12.13;8.90;;;3.00;99.90;;;-141.84;74.40;18994.88;5043842;28;20207;-62
2023/01/30 06:14:25;;;;;;;12.30;8.03;;;3.00;99.90;;;-141.84;74.13;18972.53;5038252;28;20304;-63
2023/01/30 06:16:53;;;;;;;10.83;8.47;;;3.00;99.90;;;-141.84;74.01;19021.31;5028437;28;20224;-63
2023/01/30 06:19:21;;;;;;;11.53;8.80;;;3.10;99.90;;;-141.84;74.49;19033.50;5028413;28;20232;-63
2023/01/30 06:21:49;;;;;;;12.10;8.60;;;3.10;99.90;;;-141.84;74.59;19027.41;5031464;28;20233;-64
2023/01/30 06:24:17;;;;;;;12.10;8.23;;;3.10;99.90;;;-141.84;74.55;19005.03;5029472;28;20214;-63
2023/01/30 06:26:45;;;;;;;10.33;8.03;;;3.10;99.90;;;-141.84;74.50;18986.75;5031833;28;20222;-63
2023/01/30 06:29:14;;;;;;;11.40;8.10;;;3.10;99.90;;;-141.84;74.41;19019.28;5033029;28;20255;-65
2023/01/30 06:31:43;;;;;;;12.47;8.23;;;3.10;99.90;;;-141.84;74.64;19057.88;5040095;28;20232;-66
2023/01/30 06:34:11;;;;;;;14.30;8.90;;;3.20;99.90;;;-141.84;74.54;19023.34;5046712;28;20241;-64
2023/01/30 06:36:40;;;;;;;12.00;8.40;;;3.20;99.90;;;-141.84;74.60;19009.09;5036884;28;20226;-63
2023/01/30 06:39:08;;;;;;;9.50;7.37;;;3.20;99.90;;;-141.84;74.61;19053.81;5029325;28;20199;-65
2023/01/30 06:41:36;;;;;;;11.63;8.17;;;3.20;99.90;;;-141.84;74.84;19023.34;5040791;28;20682;-66
2023/01/30 06:44:04;;;;;;;10.13;7.30;;;3.20;99.90;;;-141.84;75.20;19041.63;5049247;28;20234;-66
2023/01/30 06:46:33;;;;;;;10.80;7.30;;;3.20;99.90;;;-141.84;76.13;19000.97;5046160;28;20221;-65
2023/01/30 06:49:02;;;;;;;11.97;8.27;;;3.10;99.90;;;-141.84;75.87;19011.13;5049298;28;20226;-66
2023/01/30 06:51:31;;;;;;;11.83;7.30;;;3.10;99.90;;;-141.84;75.75;19017.25;5046637;28;20765;-67
2023/01/30 06:53:59;;;;;;;10.97;7.97;;;3.10;99.90;;;-141.84;76.07;18982.69;5049348;28;20220;-65
2023/01/30 06:56:27;;;;;;;11.33;7.53;;;3.10;99.90;;;-141.84;76.38;19031.47;5038757;28;20208;-65
2023/01/30 06:58:55;;;;;;;11.10;7.80;;;3.10;99.90;;;-141.84;76.00;19015.19;5029306;28;20232;-64
2023/01/30 07:01:23;;;;;;;9.10;6.90;;;3.20;99.90;;;-141.84;75.92;19009.09;5028869;28;20614;-64
2023/01/30 07:03:52;;;;;;;10.10;7.50;;;3.20;99.90;;;-141.84;75.45;19023.34;5029284;28;20233;-65
2023/01/30 07:06:21;;;;;;;10.53;6.70;;;3.20;99.90;;;-141.84;75.37;19023.34;5031643;28;20634;-66
2023/01/30 07:08:49;;;;;;;8.83;6.63;;;3.30;99.90;;;-141.84;75.21;19025.38;5033712;28;20214;-66
2023/01/30 07:11:17;;;;;;;9.03;6.90;;;3.30;99.90;;;-141.84;75.12;18986.75;5033761;28;20228;-67
2023/01/30 07:13:45;;;;;;;9.37;6.80;;;3.30;99.90;;;-141.84;74.98;18990.81;5033007;28;20232;-65
2023/01/30 07:16:13;;;;;;;8.27;6.60;;;3.30;99.90;;;-141.84;75.13;19033.50;5032202;28;20229;-66
2023/01/30 07:18:41;;;;;;;9.43;6.70;;;3.30;99.90;;;-141.84;75.88;19000.97;5053105;28;20228;-64
2023/01/30 07:21:09;;;;;;;7.87;5.93;;;3.30;99.90;;;-141.84;76.22;19015.19;5052429;28;20669;-66
2023/01/30 07:23:39;;;;;;;9.10;6.93;;;3.20;99.90;;;-141.84;76.26;18946.13;5053507;28;20202;-67
2023/01/30 07:26:07;;;;;;;8.57;6.87;;;3.30;99.90;;;-141.84;76.46;19007.06;5052362;28;20237;-65
2023/01/30 07:28:35;;;;;;;8.20;6.37;;;3.20;99.90;;;-141.84;76.61;19005.03;5044778;28;20241;-63
2023/01/30 07:31:03;;;;;;;8.90;6.90;;;3.20;99.90;;;-141.84;76.77;18964.41;5050110;28;20233;-63
2023/01/30 07:33:31;;;;;;;9.67;6.57;;;3.20;99.90;;;-141.84;76.95;18976.59;5052854;28;20258;-65
2023/01/30 07:35:59;;;;;;;9.03;6.73;;;3.20;99.90;;;-141.84;76.57;19003.00;5052495;28;20217;-65
2023/01/30 07:38:27;;;;;;;9.33;6.40;;;3.30;99.90;;;-141.84;76.48;19013.16;5053241;28;20581;-65
2023/01/30 07:40:58;;;;;;;7.93;5.83;;;3.30;99.90;;;-141.84;76.37;18986.75;5034014;28;20510;-63
2023/01/30 07:43:26;;;;;;;8.67;6.23;;;3.40;99.90;;;-141.84;76.58;19025.38;5033850;28;20224;-64
2023/01/30 07:45:54;;;;;;;8.10;6.33;;;3.40;99.90;;;-141.84;76.84;19025.38;5051890;28;20236;-65
2023/01/30 07:48:23;;;;;;;8.07;6.40;;;3.40;99.90;;;-141.84;76.54;19013.16;5052368;28;20228;-64
2023/01/30 07:50:51;;;;;;;6.87;5.57;;;3.50;99.90;;;-141.84;75.85;19023.34;5052699;28;20207;-63
2023/01/30 07:53:19;;;;;;;8.13;5.83;;;3.60;99.90;;;-141.84;75.49;19039.59;5037610;28;20243;-63
2023/01/30 07:55:47;;;;;;;7.20;5.53;;;3.60;99.90;;;-141.84;75.89;19023.34;5032363;28;20230;-64
2023/01/30 07:58:17;;;;;;;6.47;5.73;;;3.60;99.90;;;-141.84;75.36;19053.81;5032482;28;20238;-66
2023/01/30 08:00:45;;;;;;;6.57;5.50;;;3.60;99.90;;;-141.84;75.17;19068.03;5030084;28;20226;-65
2023/01/30 08:03:15;;;;;;;7.60;5.40;;;3.70;99.90;;;-141.84;74.74;19053.81;5031818;28;20203;-66
2023/01/30 08:05:45;;;;;;;6.67;5.40;;;3.70;99.90;;;-141.84;74.76;19029.44;5032631;28;20208;-66
2023/01/30 08:08:14;;;;;;;5.43;4.77;;;3.70;99.90;;;-141.84;74.90;19033.50;5032102;28;20234;-62
2023/01/30 08:10:42;;;;;;;7.10;5.13;;;3.80;99.90;;;-141.84;74.11;19053.81;5031736;28;20230;-63
2023/01/30 08:13:10;;;;;;;5.50;4.60;;;3.80;99.90;;;-141.84;74.23;19037.56;5037259;28;20235;-62
2023/01/30 08:15:39;;;;;;;7.90;5.17;;;3.80;99.90;;;-141.84;74.47;19019.28;5051338;28;20292;-63
2023/01/30 08:18:08;;;;;;;6.63;4.97;;;3.80;99.90;;;-141.84;74.55;19066.00;5044346;28;20198;-63
2023/01/30 08:20:37;;;;;;;5.50;4.70;;;3.80;99.90;;;-141.84;73.76;19049.75;5036414;28;20220;-61
2023/01/30 08:23:05;;;;;;;5.77;4.73;;;3.90;99.90;;;-141.84;73.46;19070.06;5031664;28;20236;-62
2023/01/30 08:25:34;;;;;;;5.53;4.27;;;4.10;99.90;;;-141.84;73.31;19059.91;5046444;28;20318;-62
2023/01/30 08:28:03;;;;;;;5.20;4.43;;;4.00;99.90;;;-141.84;73.55;19053.81;5051074;28;20438;-63
2023/01/30 08:30:31;;;;;;;5.10;4.43;;;4.00;99.90;;;-141.84;73.77;19057.88;5051418;28;20225;-65
2023/01/30 08:33:01;;;;;;;5.87;4.50;;;4.00;99.90;;;-141.84;73.66;19055.84;5051108;28;20726;-64
2023/01/30 08:35:29;;;;;;;4.90;4.20;;;4.00;99.90;;;-141.84;73.48;19074.13;5044537;28;20205;-67
2023/01/30 08:37:58;;;;;;;5.20;4.20;;;4.00;99.90;;;-141.84;73.57;19078.19;5031736;28;20336;-68
2023/01/30 08:40:27;;;;;;;4.77;4.10;;;4.10;99.90;;;-141.84;73.57;19049.75;5044358;28;20604;-68
2023/01/30 08:42:55;;;;;;;4.43;3.87;;;4.00;99.90;;;-141.84;73.41;19116.81;5051385;28;20224;-66
2023/01/30 08:45:23;;;;;;;5.17;3.77;;;4.10;99.90;;;-141.84;73.06;19080.22;5051271;28;20254;-63
2023/01/30 08:47:52;;;;;;;3.83;3.43;;;4.10;99.90;;;-141.84;72.71;19100.53;5037791;28;20221;-64
2023/01/30 08:50:21;;;;;;;5.20;3.80;;;4.20;99.90;;;-141.84;72.85;19059.91;5034296;28;20226;-64
2023/01/30 08:52:49;;;;;;;5.27;3.80;;;4.30;99.90;;;-141.84;72.73;19096.47;5051123;28;20235;-64
2023/01/30 08:55:17;;;;;;;4.07;3.67;;;4.30;99.90;;;-141.84;72.55;19094.44;5050829;28;20714;-63
2023/01/30 08:57:46;;;;;;;4.40;3.70;;;4.30;99.90;;;-141.84;72.04;19090.38;5051466;28;20224;-64
2023/01/30 09:00:16;;;;;;;4.60;3.90;;;4.40;99.90;;;-141.84;71.99;19106.66;5050796;28;20317;-63
2023/01/30 09:02:44;;;;;;;5.10;3.63;;;4.40;99.90;;;-141.84;72.40;19084.28;5051334;28;20264;-62
2023/01/30 09:05:15;;;;;;;3.93;3.37;;;4.30;99.90;;;-141.84;72.84;19096.47;5050644;28;20228;-64
2023/01/30 09:07:45;;;;;;;5.23;3.30;;;4.40;99.90;;;-141.84;72.65;19078.19;5050706;28;20248;-66
2023/01/30 09:10:13;;;;;;;3.60;3.30;;;4.30;99.90;;;-141.84;72.04;19116.81;5041229;28;20234;-66
2023/01/30 09:12:41;;;;;;;4.37;3.63;;;4.40;99.90;;;-141.84;71.87;19118.84;5037342;28;20279;-65
2023/01/30 09:15:11;;;;;;;4.10;3.43;;;4.50;99.90;;;-141.84;71.57;19108.69;5041904;28;20232;-65
2023/01/30 09:17:39;;;;;;;3.73;3.37;;;4.50;99.90;;;-141.84;71.23;19129.00;5039951;28;20623;-68
2023/01/30 09:20:11;;;;;;;3.73;3.33;;;4.60;99.90;;;-141.84;71.37;19116.81;5032364;28;20373;-67
2023/01/30 09:22:40;;;;;;;3.30;3.00;;;4.60;99.90;;;-141.84;71.69;19110.72;5034207;28;20220;-68
2023/01/30 09:25:10;;;;;;;4.37;3.20;;;4.60;99.90;;;-141.84;71.88;19112.75;5030427;28;20738;-65
2023/01/30 09:27:38;;;;;;;4.53;3.60;;;4.50;99.90;;;-141.84;71.28;19088.34;5048352;28;20239;-62
2023/01/30 09:30:08;;;;;;;3.47;3.00;;;4.60;99.90;;;-141.84;70.86;19122.91;5039543;28;20572;-65
2023/01/30 09:32:36;;;;;;;3.73;3.03;;;4.70;99.90;;;-141.84;69.73;19147.28;5048350;28;20208;-66
2023/01/30 09:35:05;;;;;;;5.13;3.37;;;4.90;99.90;;;-141.84;69.55;19129.00;5049516;28;20232;-64
2023/01/30 09:37:33;;;;;;;3.90;3.30;;;5.00;99.90;;;-141.84;69.43;19139.16;5030037;28;20298;-64
2023/01/30 09:40:01;;;;;;;3.53;3.10;;;5.00;99.90;;;-141.84;69.24;19169.63;5039887;28;20279;-64
2023/01/30 09:43:04;;;;;;;3.83;3.10;;;5.00;99.90;;;-141.84;69.65;19173.69;5042626;28;20236;-63
2023/01/30 09:45:45;;;;;;;4.20;3.00;;;5.00;99.90;;;-141.84;69.22;19118.84;5030130;28;20708;-65
2023/01/30 09:48:26;;;;;;;4.30;2.97;;;5.10;99.90;;;-141.84;69.25;19159.47;5031370;28;20216;-64
2023/01/30 09:51:21;;;;;;;2.93;2.63;;;5.10;99.90;;;-141.84;69.48;19122.91;5041021;28;20283;-66
2023/01/30 09:54:16;;;;;;;3.63;2.70;;;5.00;99.90;;;-141.84;69.73;19155.41;5031157;28;20222;-66
2023/01/30 09:56:45;;;;;;;4.30;2.60;;;5.00;99.90;;;-141.84;69.98;19169.63;5029148;28;20229;-66
2023/01/30 09:59:27;;;;;;;4.27;3.23;;;4.90;99.90;;;-141.84;70.13;19157.44;5043342;28;20257;-65
2023/01/30 10:02:24;;;;;;;3.70;2.93;;;4.80;99.90;;;-141.84;70.20;19149.31;5030279;28;20235;-65
2023/01/30 10:04:55;;;;;;;3.23;2.90;;;4.90;99.90;;;-141.84;70.22;19155.41;5031514;28;20220;-66
2023/01/30 10:07:55;;;;;;;3.20;2.73;;;4.90;99.90;;;-141.84;70.56;19165.56;5041752;28;20276;-64
2023/01/30 10:10:46;;;;;;;3.70;2.70;;;4.90;99.90;;;-141.84;69.99;19175.72;5047379;28;20224;-64
2023/01/30 10:13:42;;;;;;;3.37;3.00;;;5.00;99.90;;;-141.84;69.69;19153.38;5047216;28;20745;-64
2023/01/30 10:16:21;;;;;;;3.40;2.70;;;5.00;99.90;;;-141.84;69.67;19183.84;5043575;28;20232;-64
2023/01/30 10:19:34;;;;;;;3.50;2.93;;;5.10;99.90;;;-141.84;69.37;19171.66;5033968;28;20311;-64
2023/01/30 10:22:21;;;;;;;3.03;2.73;;;5.10;99.90;;;-141.84;69.88;19165.56;5015637;28;20654;-64
2023/01/30 10:25:03;;;;;;;3.27;2.97;;;5.00;99.90;;;-141.84;69.96;19163.53;5039019;28;20232;-65
2023/01/30 10:27:33;;;;;;;3.43;2.90;;;5.00;99.90;;;-141.84;70.48;19153.38;5031984;28;20225;-64
2023/01/30 10:30:07;;;;;;;4.47;2.73;;;4.90;99.90;;;-141.84;70.67;19102.56;5030198;28;20204;-65
2023/01/30 10:32:47;;;;;;;2.90;2.57;;;4.80;99.90;;;-141.84;71.02;19131.03;5037173;28;20564;-65